Terminal Aerodrome Forecast
Issued by NWS

Home | Current Version | Previous Version | Text Only | Print | Product List | Glossary On
Versions: 1 2 3 4 5 6 7 8 9 10 11 12 13 14 15 16 17 18 19
000
FTUS43 KAPX 241735
TAFAPN
TAF
KAPN 241735Z 2418/2518 10005KT P6SM SCT050 BKN100
     FM250200 10009KT P6SM SCT040 OVC080 WS020/11035KT
     FM250400 11011G19KT P6SM OVC025 WS020/11035KT
     FM250600 11014G23KT P6SM -SN OVC020
     FM250800 12017G27KT 6SM -RA OVC008 WS020/13050KT
     FM251100 16015G26KT 4SM -RA OVC008 WS020/16050KT
     FM251200 17014G25KT P6SM OVC008 WS020/20045KT
     FM251400 22018G30KT P6SM BKN020
     FM251500 23018G32KT P6SM SCT030
     FM251700 24019G33KT P6SM SCT050=

USA.gov is the U.S. government's official web portal to all federal, state and local government web resources and services.